Terminal Aerodrome Forecast
Issued by NWS Omaha/Valley, NE

Home | Current Version | Previous Version | Graphics & Text | Print | Product List | Glossary On
Versions: 1 2 3 4 5 6 7 8 9 10 11 12 13 14 15 16 17 18 19 20 21 22 23 24 25 26 27 28 29 30 31 32 33 34 35 36 37 38 39 40 41 42
000
FTUS43 KOAX 021923 AAA
TAFOFK
TAF AMD
KOFK 021923Z 0219/0318 08006KT P6SM BKN025 BKN100
      TEMPO 0219/0222 BKN008
     FM022300 07006KT P6SM SCT015 BKN040
     FM030600 VRB03KT 3SM BR OVC015
     FM031500 VRB03KT P6SM OVC025=

USA.gov is the U.S. government's official web portal to all federal, state and local government web resources and services.